sensor_id;sensor_type;location;lat;lon;timestamp;P1;durP1;ratioP1;P2;durP2;ratioP2
76447;SDS011;65284;51.040;13.722;2024-02-23T00:02:07;3.28;;;1.75;;
76447;SDS011;65284;51.040;13.722;2024-02-23T00:04:34;3.30;;;1.85;;
76447;SDS011;65284;51.040;13.722;2024-02-23T00:07:00;2.80;;;1.60;;
76447;SDS011;65284;51.040;13.722;2024-02-23T00:09:29;3.25;;;1.50;;
76447;SDS011;65284;51.040;13.722;2024-02-23T00:11:55;3.33;;;1.60;;
76447;SDS011;65284;51.040;13.722;2024-02-23T00:14:22;2.20;;;1.30;;
76447;SDS011;65284;51.040;13.722;2024-02-23T00:16:48;3.00;;;1.13;;
76447;SDS011;65284;51.040;13.722;2024-02-23T00:19:15;1.88;;;1.00;;
76447;SDS011;65284;51.040;13.722;2024-02-23T00:21:44;1.65;;;0.80;;
76447;SDS011;65284;51.040;13.722;2024-02-23T00:24:13;1.35;;;0.60;;
76447;SDS011;65284;51.040;13.722;2024-02-23T00:26:42;1.23;;;0.50;;
76447;SDS011;65284;51.040;13.722;2024-02-23T00:29:09;0.80;;;0.30;;
76447;SDS011;65284;51.040;13.722;2024-02-23T00:31:37;0.70;;;0.30;;
76447;SDS011;65284;51.040;13.722;2024-02-23T00:34:04;1.10;;;0.38;;
76447;SDS011;65284;51.040;13.722;2024-02-23T00:36:31;1.30;;;0.30;;
76447;SDS011;65284;51.040;13.722;2024-02-23T00:38:58;0.60;;;0.22;;
76447;SDS011;65284;51.040;13.722;2024-02-23T00:41:24;0.40;;;0.20;;
76447;SDS011;65284;51.040;13.722;2024-02-23T00:43:51;0.90;;;0.20;;
76447;SDS011;65284;51.040;13.722;2024-02-23T00:46:17;0.45;;;0.20;;
76447;SDS011;65284;51.040;13.722;2024-02-23T00:48:44;0.52;;;0.30;;
76447;SDS011;65284;51.040;13.722;2024-02-23T00:51:10;1.80;;;0.30;;
76447;SDS011;65284;51.040;13.722;2024-02-23T00:53:36;0.80;;;0.40;;
76447;SDS011;65284;51.040;13.722;2024-02-23T00:56:04;0.70;;;0.20;;
76447;SDS011;65284;51.040;13.722;2024-02-23T00:58:30;1.48;;;0.35;;
76447;SDS011;65284;51.040;13.722;2024-02-23T01:00:57;2.13;;;0.30;;
76447;SDS011;65284;51.040;13.722;2024-02-23T01:03:23;0.57;;;0.30;;
76447;SDS011;65284;51.040;13.722;2024-02-23T01:05:50;1.40;;;0.40;;
76447;SDS011;65284;51.040;13.722;2024-02-23T01:08:16;0.77;;;0.30;;
76447;SDS011;65284;51.040;13.722;2024-02-23T01:10:43;0.77;;;0.30;;
76447;SDS011;65284;51.040;13.722;2024-02-23T01:13:10;0.65;;;0.30;;
76447;SDS011;65284;51.040;13.722;2024-02-23T01:15:36;1.63;;;0.28;;
76447;SDS011;65284;51.040;13.722;2024-02-23T01:18:04;0.30;;;0.22;;
76447;SDS011;65284;51.040;13.722;2024-02-23T01:20:32;0.90;;;0.30;;
76447;SDS011;65284;51.040;13.722;2024-02-23T01:22:59;0.60;;;0.30;;
76447;SDS011;65284;51.040;13.722;2024-02-23T01:25:25;1.42;;;0.30;;
76447;SDS011;65284;51.040;13.722;2024-02-23T01:27:52;0.80;;;0.30;;
76447;SDS011;65284;51.040;13.722;2024-02-23T01:30:18;0.80;;;0.30;;
76447;SDS011;65284;51.040;13.722;2024-02-23T01:32:45;0.95;;;0.40;;
76447;SDS011;65284;51.040;13.722;2024-02-23T01:35:12;0.73;;;0.28;;
76447;SDS011;65284;51.040;13.722;2024-02-23T01:37:39;1.02;;;0.28;;
76447;SDS011;65284;51.040;13.722;2024-02-23T01:40:05;0.80;;;0.30;;
76447;SDS011;65284;51.040;13.722;2024-02-23T01:42:32;0.80;;;0.30;;
76447;SDS011;65284;51.040;13.722;2024-02-23T01:44:58;0.95;;;0.30;;
76447;SDS011;65284;51.040;13.722;2024-02-23T01:47:27;0.70;;;0.30;;
76447;SDS011;65284;51.040;13.722;2024-02-23T01:49:55;0.52;;;0.30;;
76447;SDS011;65284;51.040;13.722;2024-02-23T01:52:25;2.47;;;0.70;;
76447;SDS011;65284;51.040;13.722;2024-02-23T01:54:52;1.13;;;0.30;;
76447;SDS011;65284;51.040;13.722;2024-02-23T01:57:20;0.70;;;0.30;;
76447;SDS011;65284;51.040;13.722;2024-02-23T02:00:08;0.98;;;0.30;;
76447;SDS011;65284;51.040;13.722;2024-02-23T02:02:39;0.45;;;0.20;;
76447;SDS011;65284;51.040;13.722;2024-02-23T02:05:06;0.40;;;0.20;;
76447;SDS011;65284;51.040;13.722;2024-02-23T02:07:34;0.93;;;0.25;;
76447;SDS011;65284;51.040;13.722;2024-02-23T02:10:00;0.35;;;0.20;;
76447;SDS011;65284;51.040;13.722;2024-02-23T02:12:27;0.50;;;0.20;;
76447;SDS011;65284;51.040;13.722;2024-02-23T02:14:54;0.70;;;0.30;;
76447;SDS011;65284;51.040;13.722;2024-02-23T02:17:22;0.55;;;0.20;;
76447;SDS011;65284;51.040;13.722;2024-02-23T02:19:48;0.40;;;0.20;;
76447;SDS011;65284;51.040;13.722;2024-02-23T02:22:15;0.98;;;0.25;;
76447;SDS011;65284;51.040;13.722;2024-02-23T02:24:41;1.02;;;0.40;;
76447;SDS011;65284;51.040;13.722;2024-02-23T02:27:10;1.20;;;0.30;;
76447;SDS011;65284;51.040;13.722;2024-02-23T02:29:36;0.65;;;0.30;;
76447;SDS011;65284;51.040;13.722;2024-02-23T02:32:03;1.05;;;0.20;;
76447;SDS011;65284;51.040;13.722;2024-02-23T02:34:29;0.80;;;0.30;;
76447;SDS011;65284;51.040;13.722;2024-02-23T02:36:56;0.57;;;0.20;;
76447;SDS011;65284;51.040;13.722;2024-02-23T02:39:22;0.70;;;0.40;;
76447;SDS011;65284;51.040;13.722;2024-02-23T02:41:49;0.98;;;0.30;;
76447;SDS011;65284;51.040;13.722;2024-02-23T02:44:15;1.58;;;0.32;;
76447;SDS011;65284;51.040;13.722;2024-02-23T02:46:42;0.85;;;0.20;;
76447;SDS011;65284;51.040;13.722;2024-02-23T02:49:09;0.45;;;0.20;;
76447;SDS011;65284;51.040;13.722;2024-02-23T02:51:35;1.67;;;0.20;;
76447;SDS011;65284;51.040;13.722;2024-02-23T02:54:02;0.77;;;0.30;;
76447;SDS011;65284;51.040;13.722;2024-02-23T02:56:29;3.45;;;0.38;;
76447;SDS011;65284;51.040;13.722;2024-02-23T02:58:55;1.05;;;0.25;;
76447;SDS011;65284;51.040;13.722;2024-02-23T03:01:22;1.85;;;0.30;;
76447;SDS011;65284;51.040;13.722;2024-02-23T03:03:49;1.05;;;0.20;;
76447;SDS011;65284;51.040;13.722;2024-02-23T03:06:15;0.43;;;0.20;;
76447;SDS011;65284;51.040;13.722;2024-02-23T03:08:42;1.55;;;0.30;;
76447;SDS011;65284;51.040;13.722;2024-02-23T03:11:08;0.70;;;0.20;;
76447;SDS011;65284;51.040;13.722;2024-02-23T03:13:35;0.85;;;0.10;;
76447;SDS011;65284;51.040;13.722;2024-02-23T03:16:02;0.38;;;0.10;;
76447;SDS011;65284;51.040;13.722;2024-02-23T03:18:28;0.50;;;0.20;;
76447;SDS011;65284;51.040;13.722;2024-02-23T03:20:55;0.95;;;0.20;;
76447;SDS011;65284;51.040;13.722;2024-02-23T03:23:21;2.17;;;0.22;;
76447;SDS011;65284;51.040;13.722;2024-02-23T03:25:48;0.43;;;0.20;;
76447;SDS011;65284;51.040;13.722;2024-02-23T03:28:15;1.48;;;0.20;;
76447;SDS011;65284;51.040;13.722;2024-02-23T03:30:41;0.20;;;0.10;;
76447;SDS011;65284;51.040;13.722;2024-02-23T03:33:08;0.20;;;0.10;;
76447;SDS011;65284;51.040;13.722;2024-02-23T03:35:34;0.35;;;0.13;;
76447;SDS011;65284;51.040;13.722;2024-02-23T03:38:01;0.57;;;0.28;;
76447;SDS011;65284;51.040;13.722;2024-02-23T03:40:28;0.70;;;0.20;;
76447;SDS011;65284;51.040;13.722;2024-02-23T03:42:54;1.45;;;0.50;;
76447;SDS011;65284;51.040;13.722;2024-02-23T03:45:20;1.20;;;0.20;;
76447;SDS011;65284;51.040;13.722;2024-02-23T03:47:47;1.15;;;0.20;;
76447;SDS011;65284;51.040;13.722;2024-02-23T03:50:13;0.68;;;0.15;;
76447;SDS011;65284;51.040;13.722;2024-02-23T03:52:40;2.60;;;0.20;;
76447;SDS011;65284;51.040;13.722;2024-02-23T03:55:06;1.10;;;0.30;;
76447;SDS011;65284;51.040;13.722;2024-02-23T03:57:33;0.68;;;0.25;;
76447;SDS011;65284;51.040;13.722;2024-02-23T04:00:00;3.03;;;0.20;;
76447;SDS011;65284;51.040;13.722;2024-02-23T04:02:26;1.27;;;0.20;;
76447;SDS011;65284;51.040;13.722;2024-02-23T04:04:53;1.02;;;0.20;;
76447;SDS011;65284;51.040;13.722;2024-02-23T04:07:20;1.20;;;0.20;;
76447;SDS011;65284;51.040;13.722;2024-02-23T04:09:47;1.80;;;0.20;;
76447;SDS011;65284;51.040;13.722;2024-02-23T04:12:19;0.63;;;0.20;;
76447;SDS011;65284;51.040;13.722;2024-02-23T04:14:46;0.50;;;0.13;;
76447;SDS011;65284;51.040;13.722;2024-02-23T04:17:12;1.02;;;0.20;;
76447;SDS011;65284;51.040;13.722;2024-02-23T04:19:42;1.35;;;0.20;;
76447;SDS011;65284;51.040;13.722;2024-02-23T04:22:09;1.02;;;0.20;;
76447;SDS011;65284;51.040;13.722;2024-02-23T04:24:38;0.95;;;0.20;;
76447;SDS011;65284;51.040;13.722;2024-02-23T04:27:06;2.42;;;0.20;;
76447;SDS011;65284;51.040;13.722;2024-02-23T04:29:32;0.88;;;0.10;;
76447;SDS011;65284;51.040;13.722;2024-02-23T04:31:59;0.40;;;0.10;;
76447;SDS011;65284;51.040;13.722;2024-02-23T04:34:27;1.83;;;0.20;;
76447;SDS011;65284;51.040;13.722;2024-02-23T04:36:54;2.53;;;0.30;;
76447;SDS011;65284;51.040;13.722;2024-02-23T04:39:21;0.43;;;0.10;;
76447;SDS011;65284;51.040;13.722;2024-02-23T04:41:47;1.92;;;0.20;;
76447;SDS011;65284;51.040;13.722;2024-02-23T04:44:14;0.70;;;0.13;;
76447;SDS011;65284;51.040;13.722;2024-02-23T04:46:40;1.05;;;0.10;;
76447;SDS011;65284;51.040;13.722;2024-02-23T04:49:07;1.55;;;0.20;;
76447;SDS011;65284;51.040;13.722;2024-02-23T04:51:33;0.90;;;0.20;;
76447;SDS011;65284;51.040;13.722;2024-02-23T04:54:00;0.63;;;0.20;;
76447;SDS011;65284;51.040;13.722;2024-02-23T04:56:26;0.28;;;0.10;;
76447;SDS011;65284;51.040;13.722;2024-02-23T04:58:52;1.17;;;0.20;;
76447;SDS011;65284;51.040;13.722;2024-02-23T05:01:19;0.82;;;0.20;;
76447;SDS011;65284;51.040;13.722;2024-02-23T05:03:46;1.88;;;0.20;;
76447;SDS011;65284;51.040;13.722;2024-02-23T05:06:12;1.42;;;0.30;;
76447;SDS011;65284;51.040;13.722;2024-02-23T05:08:39;1.33;;;0.20;;
76447;SDS011;65284;51.040;13.722;2024-02-23T05:11:06;1.58;;;0.30;;
76447;SDS011;65284;51.040;13.722;2024-02-23T05:13:32;0.43;;;0.20;;
76447;SDS011;65284;51.040;13.722;2024-02-23T05:15:59;0.35;;;0.20;;
76447;SDS011;65284;51.040;13.722;2024-02-23T05:18:25;2.08;;;0.30;;
76447;SDS011;65284;51.040;13.722;2024-02-23T05:20:52;1.55;;;0.30;;
76447;SDS011;65284;51.040;13.722;2024-02-23T05:23:20;0.75;;;0.20;;
76447;SDS011;65284;51.040;13.722;2024-02-23T05:25:46;3.30;;;0.38;;
76447;SDS011;65284;51.040;13.722;2024-02-23T05:28:13;0.50;;;0.20;;
76447;SDS011;65284;51.040;13.722;2024-02-23T05:30:39;1.25;;;0.20;;
76447;SDS011;65284;51.040;13.722;2024-02-23T05:33:07;1.25;;;0.20;;
76447;SDS011;65284;51.040;13.722;2024-02-23T05:35:34;0.70;;;0.15;;
76447;SDS011;65284;51.040;13.722;2024-02-23T05:38:01;1.00;;;0.30;;
76447;SDS011;65284;51.040;13.722;2024-02-23T05:40:27;0.90;;;0.20;;
76447;SDS011;65284;51.040;13.722;2024-02-23T05:42:54;1.13;;;0.30;;
76447;SDS011;65284;51.040;13.722;2024-02-23T05:45:21;0.95;;;0.30;;
76447;SDS011;65284;51.040;13.722;2024-02-23T05:47:48;1.63;;;0.20;;
76447;SDS011;65284;51.040;13.722;2024-02-23T05:50:15;1.58;;;0.30;;
76447;SDS011;65284;51.040;13.722;2024-02-23T05:52:42;1.48;;;0.30;;
76447;SDS011;65284;51.040;13.722;2024-02-23T05:55:08;1.17;;;0.20;;
76447;SDS011;65284;51.040;13.722;2024-02-23T05:57:35;2.40;;;0.20;;
76447;SDS011;65284;51.040;13.722;2024-02-23T06:00:02;1.10;;;0.20;;
76447;SDS011;65284;51.040;13.722;2024-02-23T06:02:28;2.70;;;0.30;;
76447;SDS011;65284;51.040;13.722;2024-02-23T06:04:55;1.98;;;0.20;;
76447;SDS011;65284;51.040;13.722;2024-02-23T06:07:22;2.58;;;0.38;;
76447;SDS011;65284;51.040;13.722;2024-02-23T06:09:58;1.70;;;0.20;;
76447;SDS011;65284;51.040;13.722;2024-02-23T06:12:24;0.40;;;0.13;;
76447;SDS011;65284;51.040;13.722;2024-02-23T06:14:51;0.90;;;0.20;;
76447;SDS011;65284;51.040;13.722;2024-02-23T06:17:17;1.25;;;0.20;;
76447;SDS011;65284;51.040;13.722;2024-02-23T06:19:44;1.90;;;0.20;;
76447;SDS011;65284;51.040;13.722;2024-02-23T06:22:11;1.17;;;0.30;;
76447;SDS011;65284;51.040;13.722;2024-02-23T06:24:38;1.25;;;0.30;;
76447;SDS011;65284;51.040;13.722;2024-02-23T06:27:05;1.45;;;0.20;;
76447;SDS011;65284;51.040;13.722;2024-02-23T06:29:31;1.75;;;0.20;;
76447;SDS011;65284;51.040;13.722;2024-02-23T06:31:58;1.15;;;0.20;;
76447;SDS011;65284;51.040;13.722;2024-02-23T06:34:24;1.80;;;0.20;;
76447;SDS011;65284;51.040;13.722;2024-02-23T06:36:51;2.42;;;0.40;;
76447;SDS011;65284;51.040;13.722;2024-02-23T06:39:18;1.75;;;0.30;;
76447;SDS011;65284;51.040;13.722;2024-02-23T06:41:44;0.75;;;0.30;;
76447;SDS011;65284;51.040;13.722;2024-02-23T06:44:11;1.35;;;0.20;;
76447;SDS011;65284;51.040;13.722;2024-02-23T06:46:38;2.35;;;0.40;;
76447;SDS011;65284;51.040;13.722;2024-02-23T06:49:04;1.55;;;0.30;;
76447;SDS011;65284;51.040;13.722;2024-02-23T06:51:31;0.82;;;0.30;;
76447;SDS011;65284;51.040;13.722;2024-02-23T06:53:58;2.13;;;0.30;;
76447;SDS011;65284;51.040;13.722;2024-02-23T06:56:24;1.38;;;0.20;;
76447;SDS011;65284;51.040;13.722;2024-02-23T06:58:51;2.83;;;0.32;;
76447;SDS011;65284;51.040;13.722;2024-02-23T07:01:19;2.72;;;0.40;;
76447;SDS011;65284;51.040;13.722;2024-02-23T07:03:46;3.80;;;0.50;;
76447;SDS011;65284;51.040;13.722;2024-02-23T07:06:15;0.60;;;0.20;;
76447;SDS011;65284;51.040;13.722;2024-02-23T07:11:11;1.77;;;0.50;;
76447;SDS011;65284;51.040;13.722;2024-02-23T07:13:38;1.92;;;0.30;;
76447;SDS011;65284;51.040;13.722;2024-02-23T07:16:06;2.50;;;0.30;;
76447;SDS011;65284;51.040;13.722;2024-02-23T07:18:32;3.22;;;0.20;;
76447;SDS011;65284;51.040;13.722;2024-02-23T07:20:59;2.47;;;0.30;;
76447;SDS011;65284;51.040;13.722;2024-02-23T07:23:25;1.02;;;0.35;;
76447;SDS011;65284;51.040;13.722;2024-02-23T07:25:52;3.38;;;0.40;;
76447;SDS011;65284;51.040;13.722;2024-02-23T07:28:19;1.88;;;0.30;;
76447;SDS011;65284;51.040;13.722;2024-02-23T07:30:46;1.92;;;0.60;;
76447;SDS011;65284;51.040;13.722;2024-02-23T07:33:12;2.00;;;0.38;;
76447;SDS011;65284;51.040;13.722;2024-02-23T07:35:39;0.88;;;0.30;;
76447;SDS011;65284;51.040;13.722;2024-02-23T07:38:06;0.55;;;0.25;;
76447;SDS011;65284;51.040;13.722;2024-02-23T07:40:32;1.95;;;0.40;;
76447;SDS011;65284;51.040;13.722;2024-02-23T07:42:59;0.90;;;0.20;;
76447;SDS011;65284;51.040;13.722;2024-02-23T07:45:25;1.25;;;0.28;;
76447;SDS011;65284;51.040;13.722;2024-02-23T07:47:52;2.13;;;0.30;;
76447;SDS011;65284;51.040;13.722;2024-02-23T07:50:19;1.38;;;0.25;;
76447;SDS011;65284;51.040;13.722;2024-02-23T07:52:46;4.10;;;0.30;;
76447;SDS011;65284;51.040;13.722;2024-02-23T07:55:12;1.75;;;0.38;;
76447;SDS011;65284;51.040;13.722;2024-02-23T07:57:42;2.33;;;0.30;;
76447;SDS011;65284;51.040;13.722;2024-02-23T08:00:09;3.28;;;0.20;;
76447;SDS011;65284;51.040;13.722;2024-02-23T08:02:36;1.08;;;0.13;;
76447;SDS011;65284;51.040;13.722;2024-02-23T08:05:03;3.40;;;0.20;;
76447;SDS011;65284;51.040;13.722;2024-02-23T08:07:30;2.83;;;0.20;;
76447;SDS011;65284;51.040;13.722;2024-02-23T08:09:57;1.15;;;0.20;;
76447;SDS011;65284;51.040;13.722;2024-02-23T08:12:24;0.60;;;0.20;;
76447;SDS011;65284;51.040;13.722;2024-02-23T08:14:50;1.90;;;0.25;;
76447;SDS011;65284;51.040;13.722;2024-02-23T08:17:19;2.72;;;0.40;;
76447;SDS011;65284;51.040;13.722;2024-02-23T08:19:46;1.15;;;0.20;;
76447;SDS011;65284;51.040;13.722;2024-02-23T08:22:13;0.77;;;0.28;;
76447;SDS011;65284;51.040;13.722;2024-02-23T08:24:39;2.47;;;0.32;;
76447;SDS011;65284;51.040;13.722;2024-02-23T08:27:06;1.08;;;0.20;;
76447;SDS011;65284;51.040;13.722;2024-02-23T08:29:33;1.23;;;0.43;;
76447;SDS011;65284;51.040;13.722;2024-02-23T08:31:59;2.78;;;0.30;;
76447;SDS011;65284;51.040;13.722;2024-02-23T08:34:26;2.70;;;0.43;;
76447;SDS011;65284;51.040;13.722;2024-02-23T08:36:52;1.65;;;0.30;;
76447;SDS011;65284;51.040;13.722;2024-02-23T08:39:19;1.13;;;0.30;;
76447;SDS011;65284;51.040;13.722;2024-02-23T08:41:48;2.53;;;0.22;;
76447;SDS011;65284;51.040;13.722;2024-02-23T08:44:14;1.45;;;0.20;;
76447;SDS011;65284;51.040;13.722;2024-02-23T08:46:41;0.73;;;0.20;;
76447;SDS011;65284;51.040;13.722;2024-02-23T08:49:07;1.58;;;0.22;;
76447;SDS011;65284;51.040;13.722;2024-02-23T08:51:34;0.82;;;0.52;;
76447;SDS011;65284;51.040;13.722;2024-02-23T08:54:00;2.05;;;0.30;;
76447;SDS011;65284;51.040;13.722;2024-02-23T08:56:31;1.88;;;0.35;;
76447;SDS011;65284;51.040;13.722;2024-02-23T08:59:02;1.98;;;0.35;;
76447;SDS011;65284;51.040;13.722;2024-02-23T09:01:29;3.38;;;0.50;;
76447;SDS011;65284;51.040;13.722;2024-02-23T09:03:56;2.40;;;0.30;;
76447;SDS011;65284;51.040;13.722;2024-02-23T09:06:22;1.75;;;0.20;;
76447;SDS011;65284;51.040;13.722;2024-02-23T09:08:49;2.45;;;0.30;;
76447;SDS011;65284;51.040;13.722;2024-02-23T09:11:16;1.73;;;0.40;;
76447;SDS011;65284;51.040;13.722;2024-02-23T09:13:42;2.35;;;0.30;;
76447;SDS011;65284;51.040;13.722;2024-02-23T09:16:09;3.13;;;0.32;;
76447;SDS011;65284;51.040;13.722;2024-02-23T09:18:35;2.00;;;0.38;;
76447;SDS011;65284;51.040;13.722;2024-02-23T09:21:02;1.20;;;0.38;;
76447;SDS011;65284;51.040;13.722;2024-02-23T09:23:29;2.45;;;0.50;;
76447;SDS011;65284;51.040;13.722;2024-02-23T09:25:55;2.15;;;0.32;;
76447;SDS011;65284;51.040;13.722;2024-02-23T09:28:22;1.58;;;0.30;;
76447;SDS011;65284;51.040;13.722;2024-02-23T09:30:48;1.92;;;0.40;;
76447;SDS011;65284;51.040;13.722;2024-02-23T09:33:15;2.50;;;0.40;;
76447;SDS011;65284;51.040;13.722;2024-02-23T09:35:42;1.05;;;0.30;;
76447;SDS011;65284;51.040;13.722;2024-02-23T09:38:08;1.33;;;0.43;;
76447;SDS011;65284;51.040;13.722;2024-02-23T09:40:35;2.58;;;0.40;;
76447;SDS011;65284;51.040;13.722;2024-02-23T09:43:01;1.33;;;0.40;;
76447;SDS011;65284;51.040;13.722;2024-02-23T09:45:29;1.75;;;0.40;;
76447;SDS011;65284;51.040;13.722;2024-02-23T09:47:57;1.77;;;0.40;;
76447;SDS011;65284;51.040;13.722;2024-02-23T09:50:24;2.92;;;0.40;;
76447;SDS011;65284;51.040;13.722;2024-02-23T09:52:51;3.20;;;0.90;;
76447;SDS011;65284;51.040;13.722;2024-02-23T09:55:18;1.27;;;0.32;;
76447;SDS011;65284;51.040;13.722;2024-02-23T09:57:47;2.80;;;0.35;;
76447;SDS011;65284;51.040;13.722;2024-02-23T10:00:15;2.45;;;0.40;;
76447;SDS011;65284;51.040;13.722;2024-02-23T10:02:43;2.10;;;0.30;;
76447;SDS011;65284;51.040;13.722;2024-02-23T10:05:10;1.83;;;0.20;;
76447;SDS011;65284;51.040;13.722;2024-02-23T10:07:37;1.23;;;0.30;;
76447;SDS011;65284;51.040;13.722;2024-02-23T10:10:06;2.60;;;0.40;;
76447;SDS011;65284;51.040;13.722;2024-02-23T10:12:34;0.63;;;0.15;;
76447;SDS011;65284;51.040;13.722;2024-02-23T10:15:02;1.85;;;0.30;;
76447;SDS011;65284;51.040;13.722;2024-02-23T10:17:30;1.38;;;0.35;;
76447;SDS011;65284;51.040;13.722;2024-02-23T10:20:01;1.33;;;0.30;;
76447;SDS011;65284;51.040;13.722;2024-02-23T10:22:30;1.80;;;0.50;;
76447;SDS011;65284;51.040;13.722;2024-02-23T10:24:57;1.02;;;0.22;;
76447;SDS011;65284;51.040;13.722;2024-02-23T10:27:24;3.80;;;0.40;;
76447;SDS011;65284;51.040;13.722;2024-02-23T10:29:50;1.50;;;0.43;;
76447;SDS011;65284;51.040;13.722;2024-02-23T10:32:17;1.73;;;0.30;;
76447;SDS011;65284;51.040;13.722;2024-02-23T10:34:45;1.25;;;0.30;;
76447;SDS011;65284;51.040;13.722;2024-02-23T10:37:14;0.80;;;0.20;;
76447;SDS011;65284;51.040;13.722;2024-02-23T10:39:40;2.15;;;0.30;;
76447;SDS011;65284;51.040;13.722;2024-02-23T10:42:08;0.80;;;0.20;;
76447;SDS011;65284;51.040;13.722;2024-02-23T10:44:35;1.15;;;0.20;;
76447;SDS011;65284;51.040;13.722;2024-02-23T10:47:04;1.70;;;0.40;;
76447;SDS011;65284;51.040;13.722;2024-02-23T10:49:31;2.55;;;0.30;;
76447;SDS011;65284;51.040;13.722;2024-02-23T10:51:59;2.17;;;0.32;;
76447;SDS011;65284;51.040;13.722;2024-02-23T10:54:26;2.00;;;0.30;;
76447;SDS011;65284;51.040;13.722;2024-02-23T10:56:53;1.70;;;0.30;;
76447;SDS011;65284;51.040;13.722;2024-02-23T10:59:22;1.00;;;0.20;;
76447;SDS011;65284;51.040;13.722;2024-02-23T11:01:49;1.17;;;0.30;;
76447;SDS011;65284;51.040;13.722;2024-02-23T11:04:18;1.02;;;0.20;;
76447;SDS011;65284;51.040;13.722;2024-02-23T11:09:20;1.77;;;0.30;;
76447;SDS011;65284;51.040;13.722;2024-02-23T11:11:52;3.28;;;0.30;;
76447;SDS011;65284;51.040;13.722;2024-02-23T11:14:36;1.45;;;0.30;;
76447;SDS011;65284;51.040;13.722;2024-02-23T11:17:04;0.90;;;0.20;;
76447;SDS011;65284;51.040;13.722;2024-02-23T11:19:38;0.90;;;0.20;;
76447;SDS011;65284;51.040;13.722;2024-02-23T11:22:09;1.98;;;0.32;;
76447;SDS011;65284;51.040;13.722;2024-02-23T11:24:48;1.02;;;0.20;;
76447;SDS011;65284;51.040;13.722;2024-02-23T11:27:17;2.00;;;0.30;;
76447;SDS011;65284;51.040;13.722;2024-02-23T11:29:47;1.10;;;0.20;;
76447;SDS011;65284;51.040;13.722;2024-02-23T11:32:17;2.55;;;0.35;;
76447;SDS011;65284;51.040;13.722;2024-02-23T11:34:56;1.30;;;0.20;;
76447;SDS011;65284;51.040;13.722;2024-02-23T11:37:23;1.75;;;0.28;;
76447;SDS011;65284;51.040;13.722;2024-02-23T11:39:50;1.95;;;0.30;;
76447;SDS011;65284;51.040;13.722;2024-02-23T11:42:16;1.35;;;0.30;;
76447;SDS011;65284;51.040;13.722;2024-02-23T11:44:44;1.65;;;0.30;;
76447;SDS011;65284;51.040;13.722;2024-02-23T11:47:10;2.75;;;0.40;;
76447;SDS011;65284;51.040;13.722;2024-02-23T11:49:37;1.30;;;0.20;;
76447;SDS011;65284;51.040;13.722;2024-02-23T11:52:03;1.80;;;0.30;;
76447;SDS011;65284;51.040;13.722;2024-02-23T11:54:30;1.90;;;0.60;;
76447;SDS011;65284;51.040;13.722;2024-02-23T11:56:57;1.50;;;0.40;;
76447;SDS011;65284;51.040;13.722;2024-02-23T11:59:23;2.10;;;0.30;;
76447;SDS011;65284;51.040;13.722;2024-02-23T12:01:51;1.13;;;0.30;;
76447;SDS011;65284;51.040;13.722;2024-02-23T12:04:17;1.52;;;0.30;;
76447;SDS011;65284;51.040;13.722;2024-02-23T12:06:44;2.63;;;0.30;;
76447;SDS011;65284;51.040;13.722;2024-02-23T12:09:12;2.65;;;0.50;;
76447;SDS011;65284;51.040;13.722;2024-02-23T12:11:40;3.92;;;0.50;;
76447;SDS011;65284;51.040;13.722;2024-02-23T12:14:08;2.63;;;0.60;;
76447;SDS011;65284;51.040;13.722;2024-02-23T12:16:35;1.17;;;0.30;;
76447;SDS011;65284;51.040;13.722;2024-02-23T12:19:02;1.80;;;0.32;;
76447;SDS011;65284;51.040;13.722;2024-02-23T12:21:29;1.13;;;0.32;;
76447;SDS011;65284;51.040;13.722;2024-02-23T12:23:56;1.02;;;0.30;;
76447;SDS011;65284;51.040;13.722;2024-02-23T12:26:22;1.08;;;0.30;;
76447;SDS011;65284;51.040;13.722;2024-02-23T12:28:49;1.67;;;0.30;;
76447;SDS011;65284;51.040;13.722;2024-02-23T12:31:15;1.88;;;0.30;;
76447;SDS011;65284;51.040;13.722;2024-02-23T12:33:49;1.35;;;0.30;;
76447;SDS011;65284;51.040;13.722;2024-02-23T12:36:16;1.92;;;0.30;;
76447;SDS011;65284;51.040;13.722;2024-02-23T12:38:43;1.50;;;0.22;;
76447;SDS011;65284;51.040;13.722;2024-02-23T12:41:10;1.75;;;0.40;;
76447;SDS011;65284;51.040;13.722;2024-02-23T12:43:37;3.70;;;0.32;;
76447;SDS011;65284;51.040;13.722;2024-02-23T12:51:01;0.40;;;0.20;;
76447;SDS011;65284;51.040;13.722;2024-02-23T12:53:37;2.60;;;0.40;;
76447;SDS011;65284;51.040;13.722;2024-02-23T12:56:09;1.42;;;0.30;;
76447;SDS011;65284;51.040;13.722;2024-02-23T12:58:40;1.13;;;0.30;;
76447;SDS011;65284;51.040;13.722;2024-02-23T13:01:08;3.28;;;0.32;;
76447;SDS011;65284;51.040;13.722;2024-02-23T13:03:36;1.08;;;0.30;;
76447;SDS011;65284;51.040;13.722;2024-02-23T13:06:04;1.73;;;0.40;;
76447;SDS011;65284;51.040;13.722;2024-02-23T13:08:33;1.83;;;0.32;;
76447;SDS011;65284;51.040;13.722;2024-02-23T13:11:00;1.52;;;0.30;;
76447;SDS011;65284;51.040;13.722;2024-02-23T13:13:27;1.20;;;0.30;;
76447;SDS011;65284;51.040;13.722;2024-02-23T13:15:53;4.30;;;0.50;;
76447;SDS011;65284;51.040;13.722;2024-02-23T13:18:20;2.83;;;0.40;;
76447;SDS011;65284;51.040;13.722;2024-02-23T13:20:48;2.05;;;0.40;;
76447;SDS011;65284;51.040;13.722;2024-02-23T13:23:15;1.77;;;0.30;;
76447;SDS011;65284;51.040;13.722;2024-02-23T13:25:42;1.05;;;0.30;;
76447;SDS011;65284;51.040;13.722;2024-02-23T13:28:12;1.73;;;0.40;;
76447;SDS011;65284;51.040;13.722;2024-02-23T13:30:38;1.38;;;0.38;;
76447;SDS011;65284;51.040;13.722;2024-02-23T13:33:05;0.60;;;0.30;;
76447;SDS011;65284;51.040;13.722;2024-02-23T13:35:33;1.63;;;0.32;;
76447;SDS011;65284;51.040;13.722;2024-02-23T13:37:59;4.25;;;0.70;;
76447;SDS011;65284;51.040;13.722;2024-02-23T13:40:29;2.05;;;0.50;;
76447;SDS011;65284;51.040;13.722;2024-02-23T13:42:57;1.58;;;0.60;;
76447;SDS011;65284;51.040;13.722;2024-02-23T13:45:24;1.45;;;0.28;;
76447;SDS011;65284;51.040;13.722;2024-02-23T13:47:58;0.90;;;0.30;;
76447;SDS011;65284;51.040;13.722;2024-02-23T13:50:29;1.33;;;0.40;;
76447;SDS011;65284;51.040;13.722;2024-02-23T13:52:57;1.55;;;0.40;;
76447;SDS011;65284;51.040;13.722;2024-02-23T13:55:24;2.55;;;0.30;;
76447;SDS011;65284;51.040;13.722;2024-02-23T13:57:50;2.35;;;0.60;;
76447;SDS011;65284;51.040;13.722;2024-02-23T14:00:17;2.03;;;0.30;;
76447;SDS011;65284;51.040;13.722;2024-02-23T14:02:45;3.75;;;0.50;;
76447;SDS011;65284;51.040;13.722;2024-02-23T14:05:12;2.95;;;0.50;;
76447;SDS011;65284;51.040;13.722;2024-02-23T14:07:39;3.63;;;0.52;;
76447;SDS011;65284;51.040;13.722;2024-02-23T14:10:06;2.90;;;0.40;;
76447;SDS011;65284;51.040;13.722;2024-02-23T14:12:33;2.28;;;0.50;;
76447;SDS011;65284;51.040;13.722;2024-02-23T14:15:00;1.88;;;0.47;;
76447;SDS011;65284;51.040;13.722;2024-02-23T14:17:27;1.40;;;0.50;;
76447;SDS011;65284;51.040;13.722;2024-02-23T14:19:54;3.92;;;0.50;;
76447;SDS011;65284;51.040;13.722;2024-02-23T14:22:20;2.35;;;0.50;;
76447;SDS011;65284;51.040;13.722;2024-02-23T14:24:47;2.30;;;0.50;;
76447;SDS011;65284;51.040;13.722;2024-02-23T14:27:13;4.15;;;0.50;;
76447;SDS011;65284;51.040;13.722;2024-02-23T14:29:40;2.05;;;0.50;;
76447;SDS011;65284;51.040;13.722;2024-02-23T14:32:06;2.53;;;0.50;;
76447;SDS011;65284;51.040;13.722;2024-02-23T14:34:33;2.05;;;0.50;;
76447;SDS011;65284;51.040;13.722;2024-02-23T14:36:59;1.40;;;0.50;;
76447;SDS011;65284;51.040;13.722;2024-02-23T14:39:26;2.72;;;0.50;;
76447;SDS011;65284;51.040;13.722;2024-02-23T14:41:52;2.28;;;0.50;;
76447;SDS011;65284;51.040;13.722;2024-02-23T14:44:19;2.20;;;0.52;;